Logo AVAMET
Benvolgut visitant, si us plau, ingressa Recuperar contrasenya

Inforatge Pedreguer

Dades diàries. Acumulats / Últims 30 dies disponibles

Data Temperatura (°C) Humitat rel. (%) Pressió rel. (hPa) Vent (km/h) Precipitació
Mínima Mitjana Màxima Amplitud
tèrmica
Mínima Mitjana Màxima Mínima Mitjana Màxima Predom. Mitjana Ràfega
màxima
Total
(mm)
Índex-n
Mínima Mitjana Màxima Mínima Mitjana Màxima n
0 a 1
P0 max
mm 5'
Dades mensuals acumulades fins l'últim dia disponible
01/2020 4,3 7,7 11,1 11,1 12,3 14,9 19,1 14,8 37 79 98 1.013 1.027 1.035   4,2 83,7 110,8
Dades anuals acumulades fins l'últim dia disponible
2020 4,3 7,7 11,1 11,1 12,3 14,9 19,1 14,8 37 79 98 1.013 1.027 1.035   4,2 83,7 110,8
Últims 30 dies disponibles
24-01-2020 8,8     11,6     13,9 5,1 85 91 95 1.022 1.023 1.024 WSW 2,4 14,5 0,0
23-01-2020 7,6     10,2     13,0 5,4 81 88 94 1.020 1.022 1.024 ENE 1,1 12,9 0,0
22-01-2020 8,1     10,8     13,7 5,6 80 90 96 1.018 1.020 1.021 NW 3,7 24,1 0,2
21-01-2020 8,9     11,8     14,8 5,9 85 91 96 1.013 1.016 1.020 ENE 6,4 45,1 10,2 0,68 1,80
20-01-2020 6,7     9,4     12,3 5,6 90 95 98 1.018 1.019 1.021 ENE 15,9 83,7 71,8 0,56 4,40
19-01-2020 7,7     10,6     14,2 6,5 65 81 95 1.015 1.018 1.022 NNE 16,9 78,9 21,8 0,68 5,60
18-01-2020 10,3     13,6     18,8 8,5 51 66 77 1.022 1.029 1.033 WSW 2,6 20,9 0,0
17-01-2020 11,1     15,2     19,1 8,0 37 52 74 1.028 1.030 1.033 W 8,9 37,0 0,0
16-01-2020 10,2     13,9     17,7 7,5 59 69 78 1.028 1.029 1.031 ESE 2,9 20,9 0,0
15-01-2020 8,0     13,1     18,1 10,1 47 59 69 1.024 1.026 1.029 WSW 3,5 20,9 0,0
14-01-2020 6,8     10,9     15,2 8,4 47 60 74 1.022 1.023 1.025 SSE 2,1 17,7 0,0
13-01-2020 4,3     10,0     16,9 12,6 43 66 87 1.024 1.026 1.031 SE 1,6 19,3 0,0
12-01-2020 5,4     8,9     12,6 7,2 58 75 88 1.030 1.031 1.032 NNW 1,8 17,7 0,0
11-01-2020 7,9     10,8     13,0 5,1 66 76 87 1.029 1.031 1.033 WSW 5,0 22,5 0,0
10-01-2020 7,9     10,9     13,9 6,0 63 80 93 1.024 1.026 1.030 NNW 8,2 53,1 6,0 0,37 0,40
09-01-2020 8,5     11,5     15,1 6,6 70 82 89 1.025 1.029 1.032 SE 3,4 30,6 0,0
08-01-2020 7,6     10,8     14,3 6,7 76 86 92 1.029 1.031 1.033 NW 3,2 20,9 0,0
07-01-2020 7,7     10,9     15,3 7,6 73 85 95 1.030 1.031 1.034 ESE 2,1 20,9 0,0
06-01-2020 8,5     11,4     14,7 6,2 72 82 92 1.029 1.030 1.032 WSW 4,0 17,7 0,0
05-01-2020 6,8     11,0     15,8 9,0 60 71 79 1.028 1.030 1.033 SE 1,1 12,9 0,0
04-01-2020 7,1     10,7     14,6 7,5 65 74 78 1.033 1.033 1.034 SW 1,4 16,1 0,0
03-01-2020 6,2     8,3     14,4 8,2 73 90 95 1.031 1.032 1.033 S 0,2 8,0 0,4
02-01-2020 6,8     9,6     13,2 6,4 81 90 95 1.031 1.033 1.034 S 1,1 11,3 0,2
01-01-2020 6,8     9,8     13,3 6,5 80 88 94 1.032 1.033 1.035 WSW 1,0 11,3 0,2
31-12-2019 7,5     10,1     13,2 5,7 80 87 92 1.033 1.034 1.036 S 1,2 17,7 0,0
30-12-2019 8,8     11,0     13,2 4,4 75 84 91 1.033 1.034 1.036 W 1,9 12,9 0,0
29-12-2019 8,4     10,6     13,7 5,3 77 86 93 1.032 1.033 1.035 WSW 1,8 14,5 0,0
28-12-2019 8,6     11,9     15,7 7,1 74 86 95 1.030 1.031 1.033 SW 2,4 16,1 0,0
27-12-2019 9,9     13,2     18,5 8,6 69 81 91 1.029 1.030 1.032 SE 1,1 12,9 0,0
26-12-2019 12,3     16,6     23,7 11,4 39 55 81 1.023 1.026 1.032 WSW 1,4 16,1 0,0
Últims 13 mesos disponibles
12/2019 7,5 11,4 17,7 14,4 13,2 17,9 24,4 16,9 49 71 92 1.005 1.020 1.034 W 6,3 78,9 160,0
11/2019 7,9 12,9 21,8 15,9 14,3 19,5 26,9 19,0 44 57 79 1.000 1.013 1.020 W 10,5 70,8 4,4
10/2019 10,7 16,8 20,6 20,7 16,4 24,7 31,8 21,1 46 70 87 1.010 1.018 1.023 SE 4,6 56,3 79,0
09/2019 14,0 20,2 23,3 23,7 22,9 27,4 34,3 20,3 54 77 95 1.012 1.019 1.025 SSE 5,7 83,7 177,6
08/2019 19,2 22,8 26,5 26,9 26,4 31,4 38,0 18,8 51 71 83 1.012 1.017 1.022 SSE 6,7 46,7 69,8
07/2019 21,5 23,1 27,9 27,2 27,9 32,1 39,6 18,1 45 65 80 1.008 1.016 1.023 SSE 6,9 66,7 1,2
06/2019 15,1 18,4 22,3 22,9 21,7 27,4 36,2 21,1 40 64 84 1.010 1.017 1.023 SSE 7,9 50,0 0,8
05/2019 10,1 15,0 21,3 19,0 19,4 23,5 30,2 20,1 50 67 83 1.006 1.017 1.026 SSE 6,8 68,5 8,6
04/2019 9,8 12,1 13,9 15,5 14,0 19,5 27,9 18,1 40 69 93 1.001 1.014 1.026 S 8,2 66,7 264,0
03/2019 7,9 10,7 16,1 14,9 11,2 19,2 27,4 19,5 37 60 91 1.012 1.024 1.031 SSE 5,9 56,3 77,8
02/2019 6,3 8,9 12,1 12,8 12,2 17,1 22,6 16,3 36 63 84 997 1.026 1.035 S 6,0 74,1 0,0
01/2019 4,7 8,6 13,3 12,0 10,8 16,0 20,9 16,2 40 59 84 1.004 1.020 1.031 S 6,9 66,7 4,6
12/2018 7,1 10,2 14,1 14,0 12,3 18,4 24,1 17,0 51 69 90 1.010 1.026 1.032 SSE 3,7 58,0 37,4
Tots els anys disponibles
2019 4,7 15,1 27,9 18,8 10,8 23,0 39,6 34,9 36 66 95 997 1.018 1.035 SSE 6,8 83,7 847,8
2018 3,8 15,3 27,4 18,9 7,7 23,0 37,2 33,4 37 68 93 999 1.018 1.032 SSE 6,6 82,0 590,6
2017 4,7 12,6 19,2 16,2 11,6 20,3 28,9 24,2 60 60 60 1.015 1.015 1.015 5,3 72,2 56,0
Temperatura (°C)
Humitat relativa (%)
Velocitat del vent i ràfega màxima (km/h)
Direcció del vent (°)
Pressió (hPa)
Precipitació (mm)
Nota sobre les dades: s'avisa a l'usuari de la provisionalitat i no oficialitat d'aquestes dades
Logo AVAMET blanc
Web allotjada a Sollutia
Llicència de Creative CommonsLa web d'AVAMET i els seus continguts estan subjectes a una llicència de
Reconeixement - No Comercial - Compartir igual
Últimes estacions: Xixona - Els Ameradors (Soci), Agres - El Tossal (Soci), Xàbia - Bevenguts (MeteoXàbia), Llíria (Aj. Soci/Inforatge), Orihuela - Lo Capitán, Cox & Guardamar del Segura - horta (Meteorihuela), l'Alcúdia - Carriona & el Real de Gandia (Inforatge), Benicàssim - les Vil·les (Soci),  l'Alfàs del Pi - l'Albir (Soci), - - -